Time;durP1;ratioP1;P1;durP2;ratioP2;P2;SDS_P1;SDS_P2;PMS_P1;PMS_P2;Temp;Humidity;BMP_temperature;BMP_pressure;BME280_temperature;BME280_humidity;BME280_pressure;Samples;Min_cycle;Max_cycle;Signal;HPM_P1;HPM_P2
2022/09/01 00:01:46;;;;;;;;;;;;;;;25.51;nan;100821.56;5012937;28;578;-31
2022/09/01 00:04:31;;;;;;;;;;;;;;;25.47;nan;100819.28;5013137;28;1332;-29
2022/09/01 00:07:16;;;;;;;;;;;;;;;25.48;nan;100815.63;5011918;28;730;-30
2022/09/01 00:10:04;;;;;;;;;;;;;;;25.46;nan;100821.09;5011711;28;2006;-34
2022/09/01 00:12:50;;;;;;;;;;;;;;;25.49;nan;100826.22;5012754;28;1169;-30
2022/09/01 00:15:38;;;;;;;;;;;;;;;25.46;nan;100826.44;5012383;28;1257;-33
2022/09/01 00:18:23;;;;;;;;;;;;;;;25.40;nan;100818.94;5012705;28;1053;-38
2022/09/01 00:21:09;;;;;;;;;;;;;;;25.37;nan;100823.69;5012032;28;712;-30
2022/09/01 00:24:10;;;;;;;;;;;;;;;25.33;nan;100817.75;5012838;28;1221;-29
2022/09/01 00:26:55;;;;;;;;;;;;;;;25.32;nan;100818.72;5012706;28;1094;-29
2022/09/01 00:29:41;;;;;;;;;;;;;;;25.35;nan;100810.47;5012963;28;1903;-29
2022/09/01 00:32:28;;;;;;;;;;;;;;;25.30;nan;100810.00;5012517;28;653;-29
2022/09/01 00:35:14;;;;;;;;;;;;;;;25.31;nan;100806.38;5016753;28;1237;-30
2022/09/01 00:37:59;;;;;;;;;;;;;;;25.35;nan;100798.97;5016557;28;960;-30
2022/09/01 00:40:45;;;;;;;;;;;;;;;25.34;nan;100798.13;5016412;28;1273;-30
2022/09/01 00:43:43;;;;;;;;;;;;;;;25.34;nan;100798.13;5016620;28;1140;-29
2022/09/01 00:46:36;;;;;;;;;;;;;;;25.34;nan;100798.13;5016638;28;1547;-29
2022/09/01 00:49:35;;;;;;;;;;;;;;;25.35;nan;100794.47;5016625;28;1981;-33
2022/09/01 00:52:27;;;;;;;;;;;;;;;25.32;nan;100792.06;5016281;28;760;-30
2022/09/01 00:55:17;;;;;;;;;;;;;;;25.29;nan;100789.66;5016149;28;1332;-29
2022/09/01 00:58:12;;;;;;;;;;;;;;;25.29;nan;100788.84;5016153;28;1004;-31
2022/09/01 01:01:05;;;;;;;;;;;;;;;25.32;nan;100783.25;5016190;28;673;-30
2022/09/01 01:03:50;;;;;;;;;;;;;;;25.31;nan;100790.38;5016312;28;1280;-38
2022/09/01 01:06:35;;;;;;;;;;;;;;;25.35;nan;100781.13;5016087;28;638;-36
2022/09/01 01:09:21;;;;;;;;;;;;;;;25.38;nan;100786.22;5016068;28;1910;-32
2022/09/01 01:12:10;;;;;;;;;;;;;;;25.39;nan;100787.91;5015886;28;516;-30
2022/09/01 01:15:01;;;;;;;;;;;;;;;25.43;nan;100783.16;5015482;28;1356;-30
2022/09/01 01:17:47;;;;;;;;;;;;;;;25.44;nan;100784.88;5015778;28;1151;-32
2022/09/01 01:23:47;;;;;;;;;;;;;;;25.43;nan;100784.03;5016104;28;1268;-31
2022/09/01 01:26:33;;;;;;;;;;;;;;;25.46;nan;100786.44;5015964;28;802;-30
2022/09/01 01:29:21;;;;;;;;;;;;;;;25.48;nan;100778.28;5015738;28;1918;-30
2022/09/01 01:32:12;;;;;;;;;;;;;;;25.49;nan;100780.88;5015534;28;823;-30
2022/09/01 01:34:57;;;;;;;;;;;;;;;25.47;nan;100773.94;5015974;28;1327;-32
2022/09/01 01:37:47;;;;;;;;;;;;;;;25.48;nan;100776.50;5015682;28;929;-32
2022/09/01 01:40:33;;;;;;;;;;;;;;;25.47;nan;100776.63;5015602;28;1218;-29
2022/09/01 01:43:31;;;;;;;;;;;;;;;25.49;nan;100780.88;5015675;28;1092;-33
2022/09/01 01:46:20;;;;;;;;;;;;;;;25.49;nan;100770.19;5015580;28;1381;-31
2022/09/01 01:49:08;;;;;;;;;;;;;;;25.50;nan;100782.53;5015454;28;2243;-30
2022/09/01 01:51:55;;;;;;;;;;;;;;;25.50;nan;100765.72;5015219;28;723;-29
2022/09/01 01:54:45;;;;;;;;;;;;;;;25.53;nan;100771.63;5015466;28;1165;-30
2022/09/01 01:57:34;;;;;;;;;;;;;;;25.53;nan;100766.28;5015458;28;626;-29
2022/09/01 02:00:23;;;;;;;;;;;;;;;25.61;nan;100767.47;5015060;28;1245;-29
2022/09/01 02:03:17;;;;;;;;;;;;;;;25.53;nan;100762.78;5014812;28;1146;-29
2022/09/01 02:06:06;;;;;;;;;;;;;;;25.47;nan;100758.75;5015028;28;646;-29
2022/09/01 02:08:56;;;;;;;;;;;;;;;25.46;nan;100766.91;5015003;28;1984;-29
2022/09/01 02:11:43;;;;;;;;;;;;;;;25.37;nan;100765.88;5014766;28;665;-29
2022/09/01 02:14:28;;;;;;;;;;;;;;;25.39;nan;100761.25;5015128;28;1256;-30
2022/09/01 02:17:13;;;;;;;;;;;;;;;25.37;nan;100759.69;5014808;28;617;-29
2022/09/01 02:20:08;;;;;;;;;;;;;;;25.34;nan;100755.47;5015134;28;1224;-30
2022/09/01 02:22:54;;;;;;;;;;;;;;;25.31;nan;100761.06;5014618;28;1147;-31
2022/09/01 02:25:45;;;;;;;;;;;;;;;25.30;nan;100759.34;5013917;28;1265;-30
2022/09/01 02:29:05;;;;;;;;;;;;;;;25.29;nan;100763.00;5014250;28;1910;-31
2022/09/01 02:31:52;;;;;;;;;;;;;;;25.27;nan;100759.63;5021999;28;1534;-30
2022/09/01 02:34:41;;;;;;;;;;;;;;;25.27;nan;100759.63;5014257;28;1292;-30
2022/09/01 02:37:30;;;;;;;;;;;;;;;25.28;nan;100758.66;5013480;28;654;-33
2022/09/01 02:40:15;;;;;;;;;;;;;;;25.28;nan;100745.31;5013098;28;1261;-32
2022/09/01 02:43:19;;;;;;;;;;;;;;;25.27;nan;100754.28;5013559;28;1041;-31
2022/09/01 02:46:10;;;;;;;;;;;;;;;25.26;nan;100755.25;5013830;28;1571;-31
2022/09/01 02:48:59;;;;;;;;;;;;;;;25.23;nan;100758.16;5013754;28;1910;-31
2022/09/01 02:51:47;;;;;;;;;;;;;;;25.21;nan;100756.63;5013543;28;681;-32
2022/09/01 02:54:32;;;;;;;;;;;;;;;25.26;nan;100746.44;5013676;28;1253;-30
2022/09/01 02:57:23;;;;;;;;;;;;;;;25.22;nan;100751.16;5012654;28;657;-29
2022/09/01 03:00:19;;;;;;;;;;;;;;;25.22;nan;100750.31;5013165;28;1355;-31
2022/09/01 03:03:08;;;;;;;;;;;;;;;25.27;nan;100748.94;5013580;28;1073;-30
2022/09/01 03:05:57;;;;;;;;;;;;;;;25.28;nan;100744.47;5013236;28;1210;-32
2022/09/01 03:08:42;;;;;;;;;;;;;;;25.31;nan;100750.41;5013272;28;1233;-30
2022/09/01 03:11:28;;;;;;;;;;;;;;;25.30;nan;100732.69;5012276;28;689;-31
2022/09/01 03:14:23;;;;;;;;;;;;;;;25.31;nan;100738.88;5013348;28;1335;-33
2022/09/01 03:17:10;;;;;;;;;;;;;;;25.21;nan;100738.81;5012955;28;566;-31
2022/09/01 03:19:59;;;;;;;;;;;;;;;25.21;nan;100745.94;5013315;28;1327;-30
2022/09/01 03:22:49;;;;;;;;;;;;;;;25.20;nan;100734.44;5012907;28;1058;-30
2022/09/01 03:25:35;;;;;;;;;;;;;;;25.22;nan;100739.66;5011853;28;1273;-29
2022/09/01 03:28:24;;;;;;;;;;;;;;;25.17;nan;100737.34;5012959;28;1051;-29
2022/09/01 03:31:21;;;;;;;;;;;;;;;25.19;nan;100727.44;5012648;28;558;-32
2022/09/01 03:34:09;;;;;;;;;;;;;;;25.19;nan;100723.91;5012124;28;1213;-29
2022/09/01 03:36:55;;;;;;;;;;;;;;;25.16;nan;100719.69;5012496;28;690;-29
2022/09/01 03:39:40;;;;;;;;;;;;;;;25.18;nan;100712.41;5012806;28;1213;-28
2022/09/01 03:42:26;;;;;;;;;;;;;;;25.17;nan;100721.38;5012838;28;697;-29
2022/09/01 03:45:15;;;;;;;;;;;;;;;25.17;nan;100715.22;5010788;28;1336;-29
2022/09/01 03:48:02;;;;;;;;;;;;;;;25.12;nan;100712.94;5012511;28;1040;-35
2022/09/01 03:50:50;;;;;;;;;;;;;;;25.13;nan;100713.78;5012381;28;1937;-31
2022/09/01 03:53:37;;;;;;;;;;;;;;;25.14;nan;100720.81;5012271;28;1249;-29
2022/09/01 03:56:26;;;;;;;;;;;;;;;25.16;nan;100718.84;5012736;28;633;-30
2022/09/01 03:59:15;;;;;;;;;;;;;;;25.08;nan;100713.31;5012618;28;1292;-32
2022/09/01 04:02:01;;;;;;;;;;;;;;;25.12;nan;100718.25;5012435;28;707;-29
2022/09/01 04:04:51;;;;;;;;;;;;;;;25.13;nan;100705.78;5012506;28;1308;-30
2022/09/01 04:07:39;;;;;;;;;;;;;;;25.15;nan;100706.47;5011484;28;700;-29
2022/09/01 04:10:25;;;;;;;;;;;;;;;25.12;nan;100706.75;5011215;28;1910;-28
2022/09/01 04:13:18;;;;;;;;;;;;;;;25.12;nan;100704.94;5012136;28;1058;-29
2022/09/01 04:16:09;;;;;;;;;;;;;;;25.09;nan;100707.84;5011957;28;689;-34
2022/09/01 04:18:54;;;;;;;;;;;;;;;25.10;nan;100704.22;5012282;28;1343;-31
2022/09/01 04:21:41;;;;;;;;;;;;;;;25.09;nan;100701.66;5011921;28;671;-29
2022/09/01 04:27:46;;;;;;;;;;;;;;;25.10;nan;100698.91;5012243;28;1028;-28
2022/09/01 04:30:32;;;;;;;;;;;;;;;25.12;nan;100699.59;5011718;28;1914;-32
2022/09/01 04:33:18;;;;;;;;;;;;;;;25.14;nan;100700.31;5011745;28;1152;-29
2022/09/01 04:36:04;;;;;;;;;;;;;;;25.15;nan;100712.66;5011951;28;662;-29
2022/09/01 04:38:54;;;;;;;;;;;;;;;25.16;nan;100713.53;5012331;28;1304;-29
2022/09/01 04:41:49;;;;;;;;;;;;;;;25.13;nan;100709.28;5012308;28;594;-31
2022/09/01 04:44:35;;;;;;;;;;;;;;;25.14;nan;100704.81;5012596;28;1316;-30
2022/09/01 04:47:28;;;;;;;;;;;;;;;25.15;nan;100710.00;5012322;28;733;-29
2022/09/01 04:50:26;;;;;;;;;;;;;;;25.13;nan;100703.97;5012015;28;1902;-29
2022/09/01 04:53:11;;;;;;;;;;;;;;;25.14;nan;100710.97;5012130;28;1125;-29
2022/09/01 04:56:03;;;;;;;;;;;;;;;25.16;nan;100713.53;5012325;28;1277;-29
2022/09/01 04:58:49;;;;;;;;;;;;;;;25.15;nan;100710.00;5012257;28;1328;-28
2022/09/01 05:01:44;;;;;;;;;;;;;;;25.13;nan;100711.97;5012207;28;708;-32
2022/09/01 05:04:45;;;;;;;;;;;;;;;25.11;nan;100703.22;5015741;28;1555;-33
2022/09/01 05:07:37;;;;;;;;;;;;;;;25.10;nan;100709.56;5031476;28;678;-30
2022/09/01 05:10:22;;;;;;;;;;;;;;;25.08;nan;100706.16;5017138;28;1906;-29
2022/09/01 05:13:17;;;;;;;;;;;;;;;25.06;nan;100702.78;5013982;28;1022;-33
2022/09/01 05:16:19;;;;;;;;;;;;;;;25.07;nan;100707.16;5015523;28;707;-32
2022/09/01 05:19:27;;;;;;;;;;;;;;;25.08;nan;100711.47;5032193;28;1507;-30
2022/09/01 05:22:15;;;;;;;;;;;;;;;25.05;nan;100709.06;5035222;28;606;-31
2022/09/01 05:25:10;;;;;;;;;;;;;;;25.05;nan;100711.75;5035023;28;1347;-28
2022/09/01 05:28:05;;;;;;;;;;;;;;;25.05;nan;100711.75;5015430;28;1147;-28
2022/09/01 05:30:53;;;;;;;;;;;;;;;25.07;nan;100715.13;5015169;28;1907;-29
2022/09/01 05:33:44;;;;;;;;;;;;;;;25.06;nan;100713.44;5015254;28;1261;-30
2022/09/01 05:36:32;;;;;;;;;;;;;;;25.02;nan;100721.84;5015692;28;772;-30
2022/09/01 05:39:17;;;;;;;;;;;;;;;25.08;nan;100716.81;5015371;28;1244;-29
2022/09/01 05:42:06;;;;;;;;;;;;;;;25.05;nan;100718.91;5015211;28;609;-31
2022/09/01 05:44:52;;;;;;;;;;;;;;;25.05;nan;100730.41;5015248;28;1252;-30
2022/09/01 05:47:42;;;;;;;;;;;;;;;25.13;nan;100730.63;5015391;28;629;-34
2022/09/01 05:50:40;;;;;;;;;;;;;;;25.21;nan;100722.81;5014863;28;1911;-35
2022/09/01 05:53:29;;;;;;;;;;;;;;;25.18;nan;100731.06;5027439;28;1150;-32
2022/09/01 05:56:15;;;;;;;;;;;;;;;25.13;nan;100732.44;5014743;28;653;-30
2022/09/01 05:59:01;;;;;;;;;;;;;;;25.10;nan;100725.53;5015103;28;1303;-30
2022/09/01 06:02:11;;;;;;;;;;;;;;;25.12;nan;100731.59;5015106;28;662;-29
2022/09/01 06:04:58;;;;;;;;;;;;;;;25.22;nan;100729.00;5014428;28;1264;-34
2022/09/01 06:07:44;;;;;;;;;;;;;;;25.26;nan;100735.78;5020208;28;1752;-29
2022/09/01 06:10:37;;;;;;;;;;;;;;;25.28;nan;100724.00;5025838;28;1906;-32
2022/09/01 06:16:39;;;;;;;;;;;;;;;25.23;nan;100739.50;5014345;28;770;-30
2022/09/01 06:19:32;;;;;;;;;;;;;;;25.22;nan;100745.84;5013430;28;1245;-30
2022/09/01 06:22:22;;;;;;;;;;;;;;;25.24;nan;100751.88;5014438;28;682;-30
2022/09/01 06:25:08;;;;;;;;;;;;;;;25.26;nan;100757.09;5014370;28;1257;-32
2022/09/01 06:27:54;;;;;;;;;;;;;;;25.24;nan;100765.22;5014294;28;1081;-30
2022/09/01 06:30:39;;;;;;;;;;;;;;;25.28;nan;100758.66;5019802;28;1975;-32
2022/09/01 06:33:28;;;;;;;;;;;;;;;25.32;nan;100752.06;5018574;28;1242;-35
2022/09/01 06:36:24;;;;;;;;;;;;;;;25.28;nan;100755.97;5027184;28;1423;-28
2022/09/01 06:39:40;;;;;;;;;;;;;;;25.28;nan;100761.31;5026543;28;1340;-30
2022/09/01 06:42:25;;;;;;;;;;;;;;;25.39;nan;100755.06;5021940;28;814;-29
2022/09/01 06:45:13;;;;;;;;;;;;;;;25.49;nan;100761.34;5032733;28;1647;-30
2022/09/01 06:47:59;;;;;;;;;;;;;;;25.47;nan;100758.75;5014741;28;1380;-30
2022/09/01 06:50:47;;;;;;;;;;;;;;;25.54;nan;100765.31;5023791;28;1910;-34
2022/09/01 06:54:01;;;;;;;;;;;;;;;25.60;nan;100774.59;5013602;28;1355;-30
2022/09/01 06:56:54;;;;;;;;;;;;;;;25.72;nan;100776.22;5032433;28;1121;-48
2022/09/01 06:59:39;;;;;;;;;;;;;;;25.62;nan;100771.81;5030091;28;1284;-44
2022/09/01 07:02:24;;;;;;;;;;;;;;;25.49;nan;100769.34;5013148;28;703;-49
2022/09/01 07:05:17;;;;;;;;;;;;;;;25.58;nan;100770.38;5018693;28;1316;-47
2022/09/01 07:08:48;;;;;;;;;;;;;;;25.70;nan;100772.00;5024874;28;1332;-45
2022/09/01 07:11:54;;;;;;;;;;;;;;;25.70;nan;100769.34;5022034;28;1931;-53
2022/09/01 07:15:00;;;;;;;;;;;;;;;25.62;nan;100775.34;5020206;28;1388;-52
2022/09/01 07:18:05;;;;;;;;;;;;;;;25.62;nan;100774.50;5013713;28;1078;-59
2022/09/01 07:20:51;;;;;;;;;;;;;;;25.71;nan;100777.22;5021877;28;1455;-45
2022/09/01 07:24:00;;;;;;;;;;;;;;;25.64;nan;100780.53;5013641;28;1335;-38
2022/09/01 07:26:55;;;;;;;;;;;;;;;25.43;nan;100780.50;5013906;28;1479;-47
2022/09/01 07:29:40;;;;;;;;;;;;;;;25.62;nan;100785.16;5031798;28;1299;-43
2022/09/01 07:32:28;;;;;;;;;;;;;;;25.67;nan;100778.44;5033330;28;657;-58
2022/09/01 07:35:36;;;;;;;;;;;;;;;25.70;nan;100782.69;5033100;28;1257;-59
2022/09/01 07:38:27;;;;;;;;;;;;;;;25.78;nan;100772.19;5033203;28;952;-54
2022/09/01 07:41:33;;;;;;;;;;;;;;;25.76;nan;100776.81;5033615;28;601;-58
2022/09/01 07:44:38;;;;;;;;;;;;;;;25.77;nan;100784.69;5034012;28;1269;-49
2022/09/01 07:47:24;;;;;;;;;;;;;;;25.84;nan;100782.34;5032374;28;668;-44
2022/09/01 07:50:30;;;;;;;;;;;;;;;25.78;nan;100791.72;5031601;28;1908;-45
2022/09/01 07:53:35;;;;;;;;;;;;;;;25.81;nan;100782.59;5031873;28;1276;-48
2022/09/01 07:56:22;;;;;;;;;;;;;;;25.84;nan;100793.03;5031836;28;720;-46
2022/09/01 07:59:08;;;;;;;;;;;;;;;25.94;nan;100796.56;5031546;28;1245;-50
2022/09/01 08:01:59;;;;;;;;;;;;;;;26.03;nan;100790.44;5032297;28;626;-47
2022/09/01 08:04:45;;;;;;;;;;;;;;;26.03;nan;100798.44;5032484;28;1347;-47
2022/09/01 08:07:30;;;;;;;;;;;;;;;26.08;nan;100805.06;5033076;28;780;-40
2022/09/01 08:10:15;;;;;;;;;;;;;;;26.10;nan;100807.63;5032610;28;1898;-53
2022/09/01 08:13:04;;;;;;;;;;;;;;;26.09;nan;100801.44;5032891;28;1146;-62
2022/09/01 08:15:49;;;;;;;;;;;;;;;26.09;nan;100796.09;5032154;28;1282;-51
2022/09/01 08:18:51;;;;;;;;;;;;;;;26.09;nan;100800.59;5032719;28;1347;-57
2022/09/01 08:21:36;;;;;;;;;;;;;;;26.12;nan;100794.97;5033219;28;697;-61
2022/09/01 08:24:22;;;;;;;;;;;;;;;26.15;nan;100801.88;5033580;28;1237;-64
2022/09/01 08:27:07;;;;;;;;;;;;;;;26.14;nan;100803.72;5033043;28;626;-47
2022/09/01 08:29:53;;;;;;;;;;;;;;;26.16;nan;100796.44;5032845;28;1492;-45
2022/09/01 08:32:42;;;;;;;;;;;;;;;26.18;nan;100799.81;5032558;28;874;-46
2022/09/01 08:35:28;;;;;;;;;;;;;;;26.21;nan;100801.38;5032506;28;1356;-45
2022/09/01 08:38:14;;;;;;;;;;;;;;;26.21;nan;100804.88;5033135;28;1065;-44
2022/09/01 08:41:02;;;;;;;;;;;;;;;26.19;nan;100809.53;5030703;28;653;-47
2022/09/01 08:44:07;;;;;;;;;;;;;;;26.18;nan;100810.50;5033275;28;1236;-50
2022/09/01 08:46:56;;;;;;;;;;;;;;;26.18;nan;100817.66;5032703;28;1569;-50
2022/09/01 08:49:45;;;;;;;;;;;;;;;26.18;nan;100814.97;5032996;28;1237;-53
2022/09/01 08:52:31;;;;;;;;;;;;;;;26.20;nan;100819.25;5026650;28;1902;-54
2022/09/01 08:55:22;;;;;;;;;;;;;;;26.21;nan;100810.22;5025049;28;1399;-42
2022/09/01 08:58:09;;;;;;;;;;;;;;;26.20;nan;100805.88;5019555;28;1589;-46
2022/09/01 09:00:58;;;;;;;;;;;;;;;26.23;nan;100805.63;5025208;28;1383;-52
2022/09/01 09:04:02;;;;;;;;;;;;;;;26.24;nan;100809.97;5025417;28;1545;-49
2022/09/01 09:06:47;;;;;;;;;;;;;;;26.24;nan;100811.78;5020032;28;878;-48
2022/09/01 09:09:41;;;;;;;;;;;;;;;26.24;nan;100815.28;5016056;28;1233;-47
2022/09/01 09:12:26;;;;;;;;;;;;;;;26.24;nan;100812.63;5021281;28;1961;-51
2022/09/01 09:15:22;;;;;;;;;;;;;;;26.25;nan;100809.00;5031285;28;1307;-50
2022/09/01 09:18:10;;;;;;;;;;;;;;;26.26;nan;100813.34;5016266;28;1023;-51
2022/09/01 09:21:19;;;;;;;;;;;;;;;26.29;nan;100809.56;5015610;28;985;-47
2022/09/01 09:24:19;;;;;;;;;;;;;;;26.30;nan;100811.25;5019263;28;1378;-42
2022/09/01 09:27:06;;;;;;;;;;;;;;;26.30;nan;100809.41;5017057;28;917;-46
2022/09/01 09:29:55;;;;;;;;;;;;;;;26.33;nan;100805.63;5016222;28;1311;-48
2022/09/01 09:32:43;;;;;;;;;;;;;;;26.33;nan;100819.84;5029068;28;1903;-45
2022/09/01 09:35:48;;;;;;;;;;;;;;;26.33;nan;100819.84;5026078;28;1272;-46
2022/09/01 09:38:33;;;;;;;;;;;;;;;26.35;nan;100811.69;5027298;28;1030;-51
2022/09/01 09:41:20;;;;;;;;;;;;;;;26.37;nan;100802.56;5030411;28;984;-45
2022/09/01 09:44:24;;;;;;;;;;;;;;;26.39;nan;100803.28;5014832;28;1236;-36
2022/09/01 09:47:29;;;;;;;;;;;;;;;26.46;nan;100804.44;5021483;28;1268;-36
2022/09/01 09:50:28;;;;;;;;;;;;;;;26.45;nan;100802.72;5015519;28;1914;-40
2022/09/01 09:53:25;;;;;;;;;;;;;;;26.47;nan;100803.47;5014640;28;1088;-52
2022/09/01 09:56:14;;;;;;;;;;;;;;;26.51;nan;100798.66;5015569;28;642;-54
2022/09/01 09:58:59;;;;;;;;;;;;;;;26.54;nan;100801.91;5024419;28;1598;-40
2022/09/01 10:01:45;;;;;;;;;;;;;;;26.52;nan;100803.03;5035071;28;705;-40
2022/09/01 10:04:33;;;;;;;;;;;;;;;26.52;nan;100797.69;5034047;28;1307;-46
2022/09/01 10:07:26;;;;;;;;;;;;;;;26.51;nan;100787.97;5035382;28;653;-44
2022/09/01 10:10:24;;;;;;;;;;;;;;;26.51;nan;100787.97;5035079;28;1268;-47
2022/09/01 10:13:13;;;;;;;;;;;;;;;26.51;nan;100782.63;5034916;28;1174;-46
2022/09/01 10:16:00;;;;;;;;;;;;;;;26.53;nan;100786.03;5034703;28;1245;-57
2022/09/01 10:18:48;;;;;;;;;;;;;;;26.54;nan;100785.03;5034000;28;1221;-47
2022/09/01 10:21:37;;;;;;;;;;;;;;;26.57;nan;100779.41;5034455;28;839;-52
2022/09/01 10:24:30;;;;;;;;;;;;;;;26.57;nan;100780.28;5034459;28;1431;-56
2022/09/01 10:27:27;;;;;;;;;;;;;;;26.59;nan;100785.50;5033833;28;637;-41
2022/09/01 10:30:15;;;;;;;;;;;;;;;26.59;nan;100793.50;5034926;28;1245;-43
2022/09/01 10:36:07;;;;;;;;;;;;;;;26.58;nan;100781.13;5021876;28;935;-54
2022/09/01 10:38:53;;;;;;;;;;;;;;;26.60;nan;100779.16;5034830;28;1252;-38
2022/09/01 10:41:55;;;;;;;;;;;;;;;26.61;nan;100773.69;5034463;28;789;-42
2022/09/01 10:44:57;;;;;;;;;;;;;;;26.63;nan;100774.38;5034471;28;1303;-41
2022/09/01 10:47:42;;;;;;;;;;;;;;;26.65;nan;100762.72;5034307;28;1034;-40
2022/09/01 10:50:31;;;;;;;;;;;;;;;26.66;nan;100769.75;5033173;28;1688;-47
2022/09/01 10:53:32;;;;;;;;;;;;;;;26.74;nan;100769.91;5033381;28;1002;-46
2022/09/01 10:56:37;;;;;;;;;;;;;;;26.73;nan;100768.19;5033347;28;1104;-43
2022/09/01 10:59:28;;;;;;;;;;;;;;;26.69;nan;100762.28;5029621;28;1355;-45
2022/09/01 11:02:17;;;;;;;;;;;;;;;26.71;nan;100768.34;5034367;28;617;-46
2022/09/01 11:05:13;;;;;;;;;;;;;;;26.71;nan;100762.16;5013760;28;1285;-48
2022/09/01 11:07:59;;;;;;;;;;;;;;;26.73;nan;100766.38;5032669;28;1141;-48
2022/09/01 11:11:05;;;;;;;;;;;;;;;26.73;nan;100765.53;5027493;28;1982;-46
2022/09/01 11:13:55;;;;;;;;;;;;;;;26.73;nan;100770.88;5033686;28;1330;-47
2022/09/01 11:16:42;;;;;;;;;;;;;;;26.73;nan;100769.06;5032803;28;878;-49
2022/09/01 11:19:50;;;;;;;;;;;;;;;26.71;nan;100760.34;5033825;28;1284;-46
2022/09/01 11:22:57;;;;;;;;;;;;;;;26.74;nan;100773.44;5029796;28;1214;-49
2022/09/01 11:25:43;;;;;;;;;;;;;;;26.74;nan;100772.56;5026075;28;1233;-49
2022/09/01 11:28:30;;;;;;;;;;;;;;;26.75;nan;100771.59;5028896;28;1092;-49
2022/09/01 11:31:24;;;;;;;;;;;;;;;26.75;nan;100779.63;5027241;28;1965;-44
2022/09/01 11:34:11;;;;;;;;;;;;;;;26.77;nan;100777.66;5033386;28;1343;-46
2022/09/01 11:36:59;;;;;;;;;;;;;;;26.77;nan;100774.97;5032756;28;626;-44
2022/09/01 11:39:47;;;;;;;;;;;;;;;26.76;nan;100768.78;5032717;28;1696;-50
2022/09/01 11:42:43;;;;;;;;;;;;;;;26.82;nan;100762.91;5032949;28;719;-46
2022/09/01 11:45:32;;;;;;;;;;;;;;;26.83;nan;100763.75;5032274;28;1475;-46
2022/09/01 11:48:17;;;;;;;;;;;;;;;26.79;nan;100759.63;5033051;28;1018;-51
2022/09/01 11:51:03;;;;;;;;;;;;;;;26.79;nan;100756.97;5032431;28;1898;-52
2022/09/01 11:53:50;;;;;;;;;;;;;;;26.79;nan;100759.63;5033167;28;1387;-49
2022/09/01 11:56:36;;;;;;;;;;;;;;;26.80;nan;100762.22;5032519;28;672;-48
2022/09/01 11:59:32;;;;;;;;;;;;;;;26.80;nan;100753.34;5032152;28;1355;-55
2022/09/01 12:02:23;;;;;;;;;;;;;;;26.85;nan;100751.94;5024431;28;1470;-50
2022/09/01 12:05:29;;;;;;;;;;;;;;;26.88;nan;100751.66;5020015;28;1284;-47
2022/09/01 12:08:17;;;;;;;;;;;;;;;26.89;nan;100755.19;5031172;28;1155;-44
2022/09/01 12:11:08;;;;;;;;;;;;;;;26.89;nan;100760.53;5030342;28;1978;-48
2022/09/01 12:14:05;;;;;;;;;;;;;;;26.91;nan;100750.53;5025604;28;1249;-47
2022/09/01 12:16:59;;;;;;;;;;;;;;;26.92;nan;100746.88;5027957;28;857;-49
2022/09/01 12:19:45;;;;;;;;;;;;;;;26.97;nan;100739.28;5032144;28;1304;-45
2022/09/01 12:22:30;;;;;;;;;;;;;;;26.98;nan;100732.97;5023845;28;822;-46
2022/09/01 12:25:25;;;;;;;;;;;;;;;26.98;nan;100731.13;5031931;28;1268;-47
2022/09/01 12:28:11;;;;;;;;;;;;;;;27.00;nan;100733.66;5028047;28;1115;-48
2022/09/01 12:31:01;;;;;;;;;;;;;;;27.04;nan;100729.72;5035901;28;1210;-46
2022/09/01 12:33:47;;;;;;;;;;;;;;;27.04;nan;100735.06;5032306;28;1288;-49
2022/09/01 12:36:34;;;;;;;;;;;;;;;27.13;nan;100728.88;5034961;28;917;-34
2022/09/01 12:39:23;;;;;;;;;;;;;;;27.35;nan;100725.91;5030728;28;1339;-38
2022/09/01 12:42:18;;;;;;;;;;;;;;;27.29;nan;100729.16;5029873;28;968;-36
2022/09/01 12:45:05;;;;;;;;;;;;;;;27.26;nan;100725.91;5036105;28;1535;-35
2022/09/01 12:47:50;;;;;;;;;;;;;;;27.24;nan;100722.53;5033634;28;1058;-32
2022/09/01 12:50:40;;;;;;;;;;;;;;;27.29;nan;100714.94;5035837;28;1248;-33
2022/09/01 12:53:30;;;;;;;;;;;;;;;27.29;nan;100714.94;5026856;28;1895;-35
2022/09/01 12:56:18;;;;;;;;;;;;;;;27.24;nan;100711.84;5035080;28;658;-38
2022/09/01 12:59:12;;;;;;;;;;;;;;;27.26;nan;100713.38;5028808;28;1351;-35
2022/09/01 13:02:18;;;;;;;;;;;;;;;27.40;nan;100715.59;5035367;28;873;-35
2022/09/01 13:05:17;;;;;;;;;;;;;;;27.39;nan;100713.09;5036047;28;1344;-36
2022/09/01 13:08:07;;;;;;;;;;;;;;;27.30;nan;100709.41;5027665;28;994;-36
2022/09/01 13:10:53;;;;;;;;;;;;;;;27.23;nan;100700.31;5035638;28;1301;-37
2022/09/01 13:13:38;;;;;;;;;;;;;;;27.44;nan;100703.66;5029792;28;1335;-31
2022/09/01 13:16:23;;;;;;;;;;;;;;;27.52;nan;100708.28;5035653;28;680;-33
2022/09/01 13:19:09;;;;;;;;;;;;;;;27.45;nan;100718.72;5032635;28;1240;-32
2022/09/01 13:21:55;;;;;;;;;;;;;;;27.43;nan;100704.66;5031243;28;917;-31
2022/09/01 13:24:40;;;;;;;;;;;;;;;27.43;nan;100704.66;5029926;28;1280;-31
2022/09/01 13:27:26;;;;;;;;;;;;;;;27.31;nan;100694.22;5031072;28;877;-32
2022/09/01 13:30:16;;;;;;;;;;;;;;;27.49;nan;100698.72;5035159;28;1275;-30
2022/09/01 13:33:02;;;;;;;;;;;;;;;27.69;nan;100688.81;5031760;28;1910;-33
2022/09/01 13:36:04;;;;;;;;;;;;;;;27.65;nan;100696.28;5034675;28;669;-32
2022/09/01 13:39:10;;;;;;;;;;;;;;;27.49;nan;100689.84;5034965;28;1272;-29
2022/09/01 13:42:18;;;;;;;;;;;;;;;27.33;nan;100687.72;5031084;28;940;-30
2022/09/01 13:45:06;;;;;;;;;;;;;;;27.40;nan;100688.00;5035132;28;1572;-31
2022/09/01 13:47:53;;;;;;;;;;;;;;;27.32;nan;100679.88;5033557;28;1125;-40
2022/09/01 13:50:58;;;;;;;;;;;;;;;27.37;nan;100678.44;5035272;28;1170;-34
2022/09/01 13:54:02;;;;;;;;;;;;;;;27.41;nan;100673.66;5035199;28;1268;-33
2022/09/01 13:56:54;;;;;;;;;;;;;;;27.39;nan;100675.63;5030920;28;932;-30
2022/09/01 13:59:42;;;;;;;;;;;;;;;27.30;nan;100673.84;5034999;28;1366;-31
2022/09/01 14:02:28;;;;;;;;;;;;;;;27.31;nan;100673.69;5024012;28;849;-38
2022/09/01 14:05:14;;;;;;;;;;;;;;;27.40;nan;100671.97;5034345;28;1265;-38
2022/09/01 14:08:00;;;;;;;;;;;;;;;27.53;nan;100667.16;5027870;28;943;-34
2022/09/01 14:10:55;;;;;;;;;;;;;;;27.52;nan;100660.97;5035168;28;1368;-33
2022/09/01 14:14:06;;;;;;;;;;;;;;;27.61;nan;100660.09;5026175;28;1914;-37
2022/09/01 14:16:57;;;;;;;;;;;;;;;27.47;nan;100663.25;5030460;28;901;-36
2022/09/01 14:19:48;;;;;;;;;;;;;;;27.32;nan;100653.97;5030198;28;1284;-35
2022/09/01 14:22:34;;;;;;;;;;;;;;;27.25;nan;100646.66;5030363;28;917;-36
2022/09/01 14:25:23;;;;;;;;;;;;;;;27.24;nan;100643.13;5033048;28;1300;-31
2022/09/01 14:28:18;;;;;;;;;;;;;;;27.25;nan;100642.16;5030584;28;1071;-34
2022/09/01 14:31:09;;;;;;;;;;;;;;;27.28;nan;100635.66;5033896;28;743;-34
2022/09/01 14:33:54;;;;;;;;;;;;;;;27.44;nan;100631.44;5016941;28;1903;-36
2022/09/01 14:36:40;;;;;;;;;;;;;;;27.35;nan;100629.63;5031228;28;830;-30
2022/09/01 14:39:27;;;;;;;;;;;;;;;27.37;nan;100634.81;5024252;28;1470;-36
2022/09/01 14:42:13;;;;;;;;;;;;;;;27.33;nan;100628.06;5028642;28;1028;-30
2022/09/01 14:45:00;;;;;;;;;;;;;;;27.31;nan;100630.03;5031294;28;1255;-40
2022/09/01 14:47:47;;;;;;;;;;;;;;;27.30;nan;100629.19;5031199;28;1089;-35
2022/09/01 14:50:33;;;;;;;;;;;;;;;27.29;nan;100626.66;5032090;28;1264;-29
2022/09/01 14:53:19;;;;;;;;;;;;;;;27.30;nan;100620.34;5026696;28;1878;-35
2022/09/01 14:56:05;;;;;;;;;;;;;;;27.38;nan;100623.97;5032484;28;719;-39
2022/09/01 14:59:03;;;;;;;;;;;;;;;27.32;nan;100616.53;5026022;28;1350;-34
2022/09/01 15:02:01;;;;;;;;;;;;;;;27.31;nan;100617.50;5027725;28;987;-34
2022/09/01 15:04:47;;;;;;;;;;;;;;;27.35;nan;100620.75;5027463;28;1335;-35
2022/09/01 15:07:32;;;;;;;;;;;;;;;27.35;nan;100623.41;5027352;28;877;-36
2022/09/01 15:10:19;;;;;;;;;;;;;;;27.36;nan;100617.09;5031884;28;1363;-30
2022/09/01 15:13:12;;;;;;;;;;;;;;;27.37;nan;100614.25;5027806;28;1960;-41
2022/09/01 15:16:01;;;;;;;;;;;;;;;27.35;nan;100599.34;5026554;28;1459;-30
2022/09/01 15:18:46;;;;;;;;;;;;;;;27.36;nan;100607.22;5024837;28;1439;-32
2022/09/01 15:21:32;;;;;;;;;;;;;;;27.37;nan;100608.06;5031363;28;925;-37
2022/09/01 15:24:18;;;;;;;;;;;;;;;27.42;nan;100601.31;5030980;28;1292;-39
2022/09/01 15:27:05;;;;;;;;;;;;;;;27.41;nan;100596.09;5025491;28;869;-37
2022/09/01 15:29:50;;;;;;;;;;;;;;;27.39;nan;100596.22;5032153;28;1264;-37